createdAt,value
2023-04-06T16:02:04.082Z,187.67
2023-04-06T16:03:36.503Z,179.33
2023-04-06T16:05:08.739Z,179.00
2023-04-06T16:06:40.767Z,173.67
2023-04-06T16:08:14.372Z,165.25
2023-04-06T16:09:46.291Z,173.25
2023-04-06T16:11:18.290Z,169.50
2023-04-06T16:12:50.140Z,181.25
2023-04-06T16:14:22.134Z,156.00
2023-04-06T16:15:54.075Z,147.75
2023-04-06T16:17:26.311Z,149.75
2023-04-06T16:18:58.317Z,146.50
2023-04-06T16:20:31.094Z,143.00
2023-04-06T16:22:03.017Z,156.25
2023-04-06T16:23:34.972Z,142.50
2023-04-06T16:25:07.450Z,133.00
2023-04-06T16:26:40.216Z,130.00
2023-04-06T16:28:12.251Z,123.25
2023-04-06T16:29:44.381Z,126.75
2023-04-06T16:31:21.288Z,112.50
2023-04-06T16:32:53.453Z,109.75
2023-04-06T16:34:25.400Z,122.75
2023-04-06T16:35:57.420Z,131.00
2023-04-06T16:37:29.971Z,102.50
2023-04-06T16:39:02.583Z,86.40
2023-04-06T16:40:34.613Z,73.25
2023-04-06T16:42:06.767Z,64.25
2023-04-06T16:43:38.795Z,51.50
2023-04-06T16:45:11.966Z,52.75
2023-04-06T16:46:44.456Z,54.75
2023-04-06T16:48:16.488Z,53.00
2023-04-06T16:49:48.514Z,60.00
2023-04-06T16:51:20.605Z,56.50
2023-04-06T16:52:52.473Z,52.75
2023-04-06T16:54:24.541Z,57.75
2023-04-06T16:55:56.379Z,53.00
2023-04-06T16:57:29.696Z,58.50
2023-04-06T16:59:01.663Z,57.75
2023-04-06T17:00:33.591Z,52.25
2023-04-06T17:02:05.611Z,51.25
2023-04-06T17:03:37.749Z,48.50
2023-04-06T17:05:09.768Z,51.75
2023-04-06T17:06:41.714Z,51.25
2023-04-06T17:08:13.576Z,50.00
2023-04-06T17:09:45.568Z,51.25
2023-04-06T17:11:20.548Z,54.50
2023-04-06T17:12:55.592Z,54.50
2023-04-06T17:14:27.654Z,52.00
2023-04-06T17:16:00.610Z,47.50
2023-04-06T17:17:32.949Z,52.75
2023-04-06T17:19:05.040Z,52.50
2023-04-06T17:20:37.949Z,52.25
2023-04-06T17:22:10.001Z,50.00
2023-04-06T17:23:42.032Z,50.50
2023-04-06T17:25:15.073Z,50.40
2023-04-06T17:26:46.941Z,50.25
2023-04-06T17:28:18.849Z,47.40
2023-04-06T17:29:50.838Z,47.80
2023-04-06T17:31:22.759Z,45.80
2023-04-06T17:32:54.909Z,50.75
2023-04-06T17:34:26.939Z,47.60
2023-04-06T17:35:58.894Z,48.80
2023-04-06T17:37:31.862Z,49.80
2023-04-06T17:39:03.915Z,47.20
2023-04-06T17:40:37.882Z,47.40
2023-04-06T17:42:09.861Z,48.80
2023-04-06T17:43:42.249Z,49.80
2023-04-06T17:45:14.176Z,48.00
2023-04-06T17:46:46.353Z,53.25
2023-04-06T17:48:18.353Z,65.00
2023-04-06T17:49:50.543Z,85.75
2023-04-06T17:51:22.496Z,107.80
2023-04-06T17:52:54.430Z,95.60
2023-04-06T17:54:26.551Z,108.80
2023-04-06T17:56:02.074Z,101.00
2023-04-06T17:57:34.108Z,99.75
2023-04-06T17:59:08.279Z,84.00
2023-04-06T18:00:40.476Z,78.75
2023-04-06T18:02:12.615Z,79.25
2023-04-06T18:03:44.688Z,73.00
2023-04-06T18:05:16.674Z,63.25
2023-04-06T18:06:48.656Z,66.25
2023-04-06T18:08:22.550Z,69.50
2023-04-06T18:09:54.509Z,61.00
2023-04-06T18:11:29.417Z,64.50
2023-04-06T18:13:01.737Z,64.50
2023-04-06T18:14:33.842Z,79.50
2023-04-06T18:16:06.375Z,90.50
2023-04-06T18:17:38.387Z,87.25
2023-04-06T18:19:10.891Z,97.25
2023-04-06T18:20:43.411Z,99.80
2023-04-06T18:22:16.462Z,111.60
2023-04-06T18:23:49.546Z,105.00
2023-04-06T18:25:21.818Z,109.60
2023-04-06T18:26:53.821Z,97.40
2023-04-06T18:28:25.995Z,112.80
2023-04-06T18:29:59.984Z,102.80
2023-04-06T18:31:31.978Z,112.40
2023-04-06T18:33:04.455Z,104.00
2023-04-06T18:34:36.660Z,97.00
2023-04-06T18:36:09.954Z,114.50
2023-04-06T18:37:42.080Z,114.00
2023-04-06T18:39:14.208Z,118.75
2023-04-06T18:40:47.109Z,119.00
2023-04-06T18:42:19.712Z,134.50
2023-04-06T18:43:52.092Z,133.50
2023-04-06T18:45:24.294Z,129.25
2023-04-06T18:46:56.852Z,125.00
2023-04-06T18:48:29.558Z,148.25
2023-04-06T18:50:01.701Z,153.00
2023-04-06T18:51:33.915Z,146.25
2023-04-06T18:53:06.249Z,167.50
2023-04-06T18:54:38.298Z,169.00
2023-04-06T18:56:17.010Z,163.75
2023-04-06T18:57:49.152Z,161.25
2023-04-06T18:59:21.233Z,155.00
2023-04-06T19:00:53.836Z,155.50
2023-04-06T19:02:26.055Z,158.75
2023-04-06T19:03:59.237Z,159.25
2023-04-06T19:05:31.824Z,144.25
2023-04-06T19:07:03.935Z,150.75
2023-04-06T19:08:35.935Z,163.00
2023-04-06T19:10:08.820Z,146.25
2023-04-06T19:11:40.824Z,156.50
2023-04-06T19:13:13.059Z,175.50
2023-04-06T19:14:50.704Z,176.25
2023-04-06T19:16:22.777Z,177.25
2023-04-06T19:17:54.883Z,179.50
2023-04-06T19:19:26.943Z,181.25
2023-04-06T19:20:59.049Z,170.25
2023-04-06T19:22:31.323Z,174.25
2023-04-06T19:24:03.426Z,170.50
2023-04-06T19:25:35.587Z,179.75
2023-04-06T19:27:07.545Z,171.00
2023-04-06T19:28:39.606Z,157.25
2023-04-06T19:30:11.974Z,168.25
2023-04-06T19:31:44.006Z,186.75
2023-04-06T19:33:16.626Z,191.00
2023-04-06T19:34:48.954Z,192.33
2023-04-06T19:36:21.912Z,188.33
2023-04-06T19:37:54.086Z,180.33
2023-04-06T19:39:26.745Z,191.67
2023-04-06T19:40:59.133Z,191.67
2023-04-06T19:42:32.071Z,186.33
2023-04-06T19:44:04.264Z,192.33
2023-04-06T19:45:36.600Z,190.00
2023-04-06T19:47:09.488Z,184.75
2023-04-06T19:48:41.634Z,181.25
2023-04-06T19:50:14.140Z,170.50
2023-04-06T19:51:46.235Z,177.50
2023-04-06T19:53:18.250Z,194.75
2023-04-06T19:54:50.316Z,180.33
2023-04-06T19:56:22.276Z,188.67
2023-04-06T19:57:54.542Z,197.00
2023-04-06T19:59:26.543Z,189.00
2023-04-06T20:00:58.586Z,189.67
2023-04-06T20:02:30.852Z,177.75
2023-04-06T20:04:03.171Z,177.75
2023-04-06T20:05:35.328Z,167.75
2023-04-06T20:07:07.662Z,168.75
2023-04-06T20:08:40.225Z,172.75
2023-04-06T20:10:12.332Z,166.50
2023-04-06T20:11:44.344Z,160.50
2023-04-06T20:13:16.706Z,144.50
2023-04-06T20:14:48.717Z,159.75
2023-04-06T20:16:20.805Z,141.25
2023-04-06T20:17:52.892Z,155.50
2023-04-06T20:19:24.778Z,173.75
2023-04-06T20:20:56.880Z,169.00
2023-04-06T20:22:28.934Z,174.75
2023-04-06T20:24:01.207Z,169.75
2023-04-06T20:25:33.179Z,175.25
2023-04-06T20:27:05.450Z,170.00
2023-04-06T20:28:37.637Z,171.50
2023-04-06T20:30:10.212Z,169.50
2023-04-06T20:31:42.300Z,151.50
2023-04-06T20:33:14.415Z,155.75
2023-04-06T20:34:47.579Z,151.00
2023-04-06T20:36:20.957Z,137.75
2023-04-06T20:37:54.144Z,136.50
2023-04-06T20:39:27.571Z,139.00
2023-04-06T20:41:00.245Z,121.25
2023-04-06T20:42:32.304Z,149.25
2023-04-06T20:44:04.400Z,140.50
2023-04-06T20:45:38.644Z,142.25
2023-04-06T20:47:10.793Z,131.00
2023-04-06T20:48:42.992Z,149.75
2023-04-06T20:50:15.119Z,143.00
2023-04-06T20:51:47.206Z,140.75
2023-04-06T20:53:19.567Z,147.75
2023-04-06T20:54:51.744Z,138.50
2023-04-06T20:56:23.689Z,137.75
2023-04-06T20:57:55.869Z,136.50
2023-04-06T20:59:28.112Z,143.25
2023-04-06T21:01:00.140Z,145.75
2023-04-06T21:02:33.391Z,146.75
2023-04-06T21:04:05.948Z,161.00
2023-04-06T21:05:38.150Z,136.50
2023-04-06T21:07:10.149Z,157.75
2023-04-06T21:08:42.559Z,159.00
2023-04-06T21:10:14.799Z,147.50
2023-04-06T21:11:47.143Z,145.00
2023-04-06T21:13:19.239Z,155.00
2023-04-06T21:14:51.250Z,137.75
2023-04-06T21:16:23.469Z,150.25
2023-04-06T21:17:55.791Z,137.50
2023-04-06T21:19:27.960Z,142.00
2023-04-06T21:21:00.163Z,138.50
2023-04-06T21:22:32.217Z,102.25
2023-04-06T21:24:04.484Z,130.50
2023-04-06T21:25:37.451Z,131.50
2023-04-06T21:27:13.098Z,113.50
2023-04-06T21:28:46.035Z,117.50
2023-04-06T21:30:18.045Z,121.25
2023-04-06T21:31:50.094Z,127.25
2023-04-06T21:33:22.304Z,116.25
2023-04-06T21:34:54.332Z,122.00
2023-04-06T21:36:26.845Z,122.25
2023-04-06T21:37:58.979Z,123.75
2023-04-06T21:39:31.207Z,129.25
2023-04-06T21:41:03.233Z,122.00
2023-04-06T21:42:35.208Z,127.50
2023-04-06T21:44:07.337Z,116.00
2023-04-06T21:45:40.438Z,123.00
2023-04-06T21:47:12.464Z,116.75
2023-04-06T21:48:44.464Z,120.75
2023-04-06T21:50:18.313Z,111.00
2023-04-06T21:51:50.588Z,116.50
2023-04-06T21:53:22.549Z,109.75
2023-04-06T21:54:54.540Z,106.00
2023-04-06T21:56:26.615Z,115.25
2023-04-06T21:57:58.705Z,118.50
2023-04-06T21:59:30.799Z,129.00
2023-04-06T22:01:02.930Z,126.25
2023-04-06T22:02:35.311Z,126.50
2023-04-06T22:04:07.514Z,129.75
2023-04-06T22:05:39.859Z,132.00
2023-04-06T22:07:11.986Z,133.25
2023-04-06T22:08:46.247Z,123.25
2023-04-06T22:10:18.249Z,130.00
2023-04-06T22:11:50.239Z,120.50
2023-04-06T22:13:22.629Z,124.50
2023-04-06T22:14:54.659Z,120.00
2023-04-06T22:16:27.310Z,124.25
2023-04-06T22:17:59.350Z,125.25
2023-04-06T22:19:31.317Z,118.75
2023-04-06T22:21:06.136Z,98.50
2023-04-06T22:22:37.923Z,115.00
2023-04-06T22:24:09.880Z,109.25
2023-04-06T22:25:41.791Z,111.75
2023-04-06T22:27:13.743Z,96.00
2023-04-06T22:28:45.693Z,111.50
2023-04-06T22:30:17.702Z,90.00
2023-04-06T22:31:49.647Z,98.80
2023-04-06T22:33:21.714Z,91.80
2023-04-06T22:34:53.569Z,85.50
